createdAt,value
2023-03-16T00:00:55.718Z,3.50
2023-03-16T00:03:30.678Z,6.70
2023-03-16T00:06:01.428Z,2.77
2023-03-16T00:08:31.834Z,3.50
2023-03-16T00:11:02.989Z,3.77
2023-03-16T00:13:33.776Z,3.87
2023-03-16T00:16:05.683Z,4.73
2023-03-16T00:18:39.516Z,6.07
2023-03-16T00:21:10.619Z,6.40
2023-03-16T00:23:43.138Z,6.20
2023-03-16T00:26:15.552Z,4.00
2023-03-16T00:28:45.978Z,5.93
2023-03-16T00:31:17.937Z,4.30
2023-03-16T00:33:49.960Z,3.10
2023-03-16T00:36:20.739Z,3.10
2023-03-16T00:38:51.564Z,3.17
2023-03-16T00:41:23.085Z,2.37
2023-03-16T00:43:54.063Z,3.03
2023-03-16T00:46:27.254Z,3.00
2023-03-16T00:48:59.667Z,3.00
2023-03-16T00:51:30.668Z,4.07
2023-03-16T00:54:01.725Z,6.90
2023-03-16T00:56:32.565Z,6.10
2023-03-16T00:59:02.765Z,6.40
2023-03-16T01:01:33.807Z,6.63
2023-03-16T01:04:05.919Z,5.50
2023-03-16T01:06:38.794Z,7.83
2023-03-16T01:09:10.075Z,6.03
2023-03-16T01:11:43.304Z,3.97
2023-03-16T01:14:15.951Z,4.07
2023-03-16T01:16:57.860Z,6.13
2023-03-16T01:19:31.270Z,3.23
2023-03-16T01:22:02.631Z,2.43
2023-03-16T01:24:33.119Z,2.40
2023-03-16T01:27:04.814Z,4.40
2023-03-16T01:29:35.937Z,4.27
2023-03-16T01:32:05.932Z,2.70
2023-03-16T01:34:37.511Z,3.17
2023-03-16T01:37:07.496Z,1.90
2023-03-16T01:39:40.356Z,2.13
2023-03-16T01:42:11.064Z,2.87
2023-03-16T01:45:01.945Z,2.33
2023-03-16T01:47:31.531Z,2.07
2023-03-16T01:50:04.147Z,2.80
2023-03-16T01:52:36.048Z,1.70
2023-03-16T01:55:09.756Z,2.13
2023-03-16T01:57:42.859Z,1.70
2023-03-16T02:00:19.614Z,1.87
2023-03-16T02:02:53.445Z,2.93
2023-03-16T02:05:28.052Z,2.43
2023-03-16T02:07:59.468Z,3.63
2023-03-16T02:10:31.626Z,4.37
2023-03-16T02:13:02.799Z,3.00
2023-03-16T02:15:36.827Z,3.97
2023-03-16T02:18:08.292Z,3.17
2023-03-16T02:20:47.282Z,4.97
2023-03-16T02:23:21.365Z,3.40
2023-03-16T02:25:58.189Z,3.30
2023-03-16T02:28:34.218Z,5.63
2023-03-16T02:31:07.614Z,3.53
2023-03-16T02:33:38.927Z,4.35
2023-03-16T02:36:09.731Z,3.47
2023-03-16T02:38:42.167Z,3.60
2023-03-16T02:41:15.273Z,4.23
2023-03-16T02:43:52.672Z,3.00
2023-03-16T02:46:27.218Z,3.73
2023-03-16T02:49:03.593Z,3.63
2023-03-16T02:51:33.788Z,4.63
2023-03-16T02:54:04.688Z,2.70
2023-03-16T02:56:34.708Z,3.43
2023-03-16T02:59:05.957Z,4.03
2023-03-16T03:01:38.856Z,4.23
2023-03-16T03:04:10.167Z,3.40
2023-03-16T03:06:41.972Z,4.27
2023-03-16T03:09:13.630Z,2.37
2023-03-16T03:11:43.947Z,4.67
2023-03-16T03:14:17.374Z,3.57
2023-03-16T03:16:49.312Z,3.83
2023-03-16T03:19:19.197Z,4.90
2023-03-16T03:21:50.531Z,4.37
2023-03-16T03:24:20.871Z,4.00
2023-03-16T03:26:50.998Z,4.40
2023-03-16T03:29:21.900Z,3.93
2023-03-16T03:31:53.704Z,3.63
2023-03-16T03:34:24.388Z,3.73
2023-03-16T03:36:55.212Z,2.37
2023-03-16T03:39:26.116Z,1.70
2023-03-16T03:41:56.376Z,2.13
2023-03-16T03:44:27.582Z,2.33
2023-03-16T03:46:59.284Z,2.83
2023-03-16T03:49:29.490Z,3.00
2023-03-16T03:52:05.051Z,2.20
2023-03-16T03:54:35.271Z,2.90
2023-03-16T03:57:05.014Z,2.83
2023-03-16T03:59:35.302Z,3.20
2023-03-16T04:02:07.490Z,2.20
2023-03-16T04:04:38.300Z,2.00
2023-03-16T04:07:09.024Z,2.40
2023-03-16T04:09:39.561Z,2.20
2023-03-16T04:12:11.071Z,2.60
2023-03-16T04:14:41.517Z,2.10
2023-03-16T04:17:14.220Z,2.00
2023-03-16T04:19:45.416Z,1.60
2023-03-16T04:22:15.417Z,2.93
2023-03-16T04:24:45.761Z,2.37
2023-03-16T04:27:15.649Z,2.40
2023-03-16T04:29:46.232Z,2.23
2023-03-16T04:32:17.933Z,1.30
2023-03-16T04:34:48.717Z,1.40
2023-03-16T04:37:19.230Z,4.43
2023-03-16T04:39:50.263Z,1.10
2023-03-16T04:42:20.125Z,1.30
2023-03-16T04:44:51.701Z,1.80
2023-03-16T04:47:24.903Z,1.37
2023-03-16T04:49:56.189Z,1.10
2023-03-16T04:52:27.770Z,1.40
2023-03-16T04:54:58.042Z,1.20
2023-03-16T04:57:28.198Z,1.33
2023-03-16T04:59:58.758Z,1.13
2023-03-16T05:02:30.735Z,1.70
2023-03-16T05:05:01.989Z,1.77
2023-03-16T05:07:33.180Z,1.30
2023-03-16T05:10:03.687Z,2.57
2023-03-16T05:12:33.627Z,1.63
2023-03-16T05:15:03.977Z,1.10
2023-03-16T05:17:35.909Z,1.80
2023-03-16T05:20:09.920Z,1.40
2023-03-16T05:22:42.163Z,1.33
2023-03-16T05:25:15.164Z,1.97
2023-03-16T05:27:46.901Z,1.77
2023-03-16T05:30:19.213Z,1.30
2023-03-16T05:32:51.785Z,1.20
2023-03-16T05:35:24.123Z,1.50
2023-03-16T05:37:54.543Z,5.00
2023-03-16T05:40:27.034Z,3.27
2023-03-16T05:43:00.912Z,3.80
2023-03-16T05:45:31.724Z,2.80
2023-03-16T05:48:06.046Z,2.40
2023-03-16T05:50:36.137Z,4.83
2023-03-16T05:53:05.997Z,3.07
2023-03-16T05:55:36.853Z,2.70
2023-03-16T05:58:07.537Z,1.90
2023-03-16T06:00:39.795Z,1.93
2023-03-16T06:03:12.031Z,4.17
2023-03-16T06:05:42.344Z,2.73
2023-03-16T06:08:12.736Z,1.93
2023-03-16T06:10:43.280Z,1.80
2023-03-16T06:13:13.719Z,2.00
2023-03-16T06:15:44.547Z,2.53
2023-03-16T06:18:16.714Z,3.27
2023-03-16T06:20:47.665Z,2.00
2023-03-16T06:23:19.900Z,3.73
2023-03-16T06:25:50.086Z,6.70
2023-03-16T06:28:20.166Z,2.30
2023-03-16T06:30:50.251Z,2.80
2023-03-16T06:33:22.460Z,2.30
2023-03-16T06:35:53.281Z,3.10
2023-03-16T06:38:23.659Z,16.93
2023-03-16T06:40:57.072Z,4.30
2023-03-16T06:43:28.216Z,4.30
2023-03-16T06:45:59.335Z,2.33
2023-03-16T06:48:32.005Z,2.63
2023-03-16T06:51:02.873Z,2.90
2023-03-16T06:53:34.597Z,3.77
2023-03-16T06:56:07.272Z,2.77
2023-03-16T06:58:38.035Z,3.50
2023-03-16T07:01:09.075Z,5.77
2023-03-16T07:03:42.428Z,5.80
2023-03-16T07:06:13.989Z,2.43
2023-03-16T07:08:47.826Z,3.40
2023-03-16T07:11:18.304Z,3.43
2023-03-16T07:13:48.915Z,3.90
2023-03-16T07:16:20.032Z,4.20
2023-03-16T07:18:52.557Z,7.33
2023-03-16T07:21:23.029Z,2.30
2023-03-16T07:23:59.893Z,2.70
2023-03-16T07:26:31.302Z,2.20
2023-03-16T07:29:02.712Z,2.20
2023-03-16T07:31:35.105Z,1.60
2023-03-16T07:34:06.977Z,5.33
2023-03-16T07:36:38.556Z,2.67
2023-03-16T07:39:10.259Z,8.60
2023-03-16T07:41:41.145Z,1.97
2023-03-16T07:44:12.381Z,2.70
2023-03-16T07:46:43.540Z,2.00
2023-03-16T07:49:16.881Z,1.20
2023-03-16T07:51:48.317Z,1.53
2023-03-16T07:54:19.222Z,2.07
2023-03-16T07:56:51.050Z,1.43
2023-03-16T07:59:22.477Z,1.40
2023-03-16T08:01:54.815Z,1.43
2023-03-16T08:04:27.897Z,1.83
2023-03-16T08:07:00.602Z,1.60
2023-03-16T08:09:31.729Z,2.63
2023-03-16T08:12:02.615Z,2.07
2023-03-16T08:14:35.180Z,1.67
2023-03-16T08:17:06.274Z,1.70
2023-03-16T08:19:38.320Z,1.40
2023-03-16T08:22:09.450Z,2.13
2023-03-16T08:24:40.677Z,3.37
2023-03-16T08:27:11.466Z,1.40
2023-03-16T08:29:41.550Z,1.77
2023-03-16T08:32:12.617Z,1.73
2023-03-16T08:34:46.332Z,1.30
2023-03-16T08:37:17.970Z,3.47
2023-03-16T08:39:51.947Z,2.67
2023-03-16T08:42:24.259Z,3.57
2023-03-16T08:44:56.001Z,1.70
2023-03-16T08:47:27.576Z,2.90
2023-03-16T08:50:01.896Z,2.10
2023-03-16T08:52:32.822Z,1.37
2023-03-16T08:55:05.216Z,3.00
2023-03-16T08:57:35.920Z,1.67
2023-03-16T09:00:13.178Z,1.30
2023-03-16T09:02:44.798Z,1.17
2023-03-16T09:05:19.095Z,1.00
2023-03-16T09:07:50.482Z,1.00
2023-03-16T09:10:20.298Z,1.37
2023-03-16T09:12:51.087Z,1.50
2023-03-16T09:15:22.515Z,2.33
2023-03-16T09:17:55.091Z,2.57
2023-03-16T09:20:34.592Z,2.30
2023-03-16T09:23:06.159Z,1.60
2023-03-16T09:25:36.600Z,1.90
2023-03-16T09:28:09.166Z,1.20
2023-03-16T09:30:40.108Z,3.07
2023-03-16T09:33:11.795Z,1.53
2023-03-16T09:35:45.715Z,1.10
2023-03-16T09:38:15.968Z,1.37
2023-03-16T09:40:47.283Z,1.57
2023-03-16T09:43:38.304Z,1.63
2023-03-16T09:46:12.828Z,1.10
2023-03-16T09:48:44.206Z,1.03
2023-03-16T09:51:21.957Z,1.70
2023-03-16T09:53:54.643Z,1.00
2023-03-16T09:56:30.331Z,1.67
2023-03-16T09:59:01.956Z,2.47
2023-03-16T10:01:43.171Z,2.70
2023-03-16T10:04:23.416Z,2.10
2023-03-16T10:07:03.007Z,1.67
2023-03-16T10:09:37.114Z,2.30
2023-03-16T10:12:10.227Z,1.40
2023-03-16T10:14:45.920Z,0.90
2023-03-16T10:17:20.231Z,1.93
2023-03-16T10:19:54.211Z,2.03
2023-03-16T10:22:30.387Z,1.20
2023-03-16T10:25:13.260Z,1.23
2023-03-16T10:27:45.757Z,1.93
2023-03-16T10:30:28.917Z,6.17
2023-03-16T10:33:03.819Z,3.23
2023-03-16T10:35:43.304Z,3.30
2023-03-16T10:38:29.972Z,2.00
2023-03-16T10:41:00.935Z,1.93
2023-03-16T10:43:33.201Z,3.03
2023-03-16T10:46:05.081Z,1.00
2023-03-16T10:48:36.718Z,2.20
2023-03-16T10:51:10.502Z,1.60
2023-03-16T10:53:44.824Z,2.70
2023-03-16T10:56:21.366Z,2.30
2023-03-16T10:58:52.203Z,1.37
2023-03-16T11:01:27.225Z,1.40
2023-03-16T11:04:02.699Z,1.63
2023-03-16T11:06:35.790Z,1.23
2023-03-16T11:09:09.908Z,1.67
2023-03-16T11:11:40.347Z,1.60
2023-03-16T11:14:15.772Z,1.83
2023-03-16T11:16:51.336Z,1.40
2023-03-16T11:19:23.617Z,1.57
2023-03-16T11:21:59.474Z,1.67
2023-03-16T11:24:36.195Z,1.60
2023-03-16T11:27:09.711Z,1.27
2023-03-16T11:29:49.204Z,1.63
2023-03-16T11:32:24.413Z,3.60
2023-03-16T11:34:54.547Z,1.30
2023-03-16T11:37:38.447Z,1.20
2023-03-16T11:40:18.059Z,2.50
2023-03-16T11:42:56.704Z,3.80
2023-03-16T11:45:33.243Z,2.60
2023-03-16T11:48:13.046Z,1.13
2023-03-16T11:50:53.079Z,1.67
2023-03-16T11:53:35.653Z,1.77
2023-03-16T11:56:16.542Z,1.87
2023-03-16T11:58:58.213Z,1.30
2023-03-16T12:01:43.253Z,1.20
2023-03-16T12:04:31.218Z,3.90
2023-03-16T12:07:14.292Z,1.47
2023-03-16T12:10:11.256Z,1.50
2023-03-16T12:12:50.598Z,1.23
2023-03-16T12:15:25.929Z,1.83
2023-03-16T12:17:58.651Z,1.77
2023-03-16T12:20:32.229Z,2.97
2023-03-16T12:23:08.540Z,1.20
2023-03-16T12:25:43.274Z,4.23
2023-03-16T12:28:22.743Z,3.73
2023-03-16T12:31:00.600Z,1.47
2023-03-16T12:33:42.299Z,1.60
2023-03-16T12:36:40.471Z,5.40
2023-03-16T12:39:15.123Z,2.60
2023-03-16T12:41:57.634Z,1.47
2023-03-16T12:44:34.876Z,1.43
2023-03-16T12:47:13.306Z,1.67
2023-03-16T12:49:45.940Z,1.63
2023-03-16T12:52:17.119Z,2.40
2023-03-16T12:54:55.850Z,1.83
2023-03-16T12:57:28.591Z,1.43
2023-03-16T13:00:01.790Z,1.40
2023-03-16T13:02:35.319Z,2.50
2023-03-16T13:05:11.169Z,2.07
2023-03-16T13:07:50.175Z,1.57
2023-03-16T13:10:22.645Z,2.03
2023-03-16T13:12:54.146Z,2.10
2023-03-16T13:15:33.607Z,1.30
2023-03-16T13:18:23.093Z,1.50
2023-03-16T13:20:59.135Z,1.17
2023-03-16T13:23:31.523Z,2.40
2023-03-16T13:26:09.679Z,1.40
2023-03-16T13:28:40.873Z,1.27
2023-03-16T13:31:26.467Z,1.47
2023-03-16T13:34:00.549Z,1.53
2023-03-16T13:36:32.063Z,1.40
2023-03-16T13:39:07.695Z,1.67
2023-03-16T13:41:38.146Z,2.63
2023-03-16T13:44:13.869Z,2.30
2023-03-16T13:46:45.612Z,1.67
2023-03-16T13:49:15.578Z,3.03
2023-03-16T13:51:46.035Z,1.40
2023-03-16T13:54:26.271Z,1.60
2023-03-16T13:56:59.726Z,2.70
2023-03-16T13:59:30.942Z,3.13
2023-03-16T14:02:03.758Z,1.43
2023-03-16T14:04:37.177Z,2.70
2023-03-16T14:07:08.810Z,1.60
2023-03-16T14:09:39.902Z,2.40
2023-03-16T14:12:15.411Z,1.40
2023-03-16T14:14:50.918Z,1.73
2023-03-16T14:17:23.824Z,2.33
2023-03-16T14:19:58.270Z,2.13
2023-03-16T14:22:40.994Z,3.17
2023-03-16T14:25:22.897Z,1.97
2023-03-16T14:28:01.436Z,2.13
2023-03-16T14:30:32.470Z,1.53
2023-03-16T14:33:05.919Z,2.43
2023-03-16T14:35:44.313Z,1.43
2023-03-16T14:38:24.165Z,1.03
2023-03-16T14:40:56.751Z,2.47
2023-03-16T14:43:33.155Z,1.57
2023-03-16T14:46:05.714Z,1.93
2023-03-16T14:48:39.425Z,1.80
2023-03-16T14:51:13.611Z,2.10
2023-03-16T14:53:44.251Z,3.63
2023-03-16T14:56:18.036Z,1.77
2023-03-16T14:58:48.411Z,1.97
2023-03-16T15:01:20.991Z,1.50
2023-03-16T15:03:53.302Z,2.57
2023-03-16T15:06:23.982Z,2.40
2023-03-16T15:08:55.111Z,1.80
2023-03-16T15:11:26.857Z,1.40
2023-03-16T15:14:04.688Z,1.63
2023-03-16T15:16:34.944Z,4.90
2023-03-16T15:19:06.377Z,3.50
2023-03-16T15:21:37.032Z,2.07
2023-03-16T15:24:06.730Z,1.50
2023-03-16T15:26:37.621Z,2.67
2023-03-16T15:29:11.912Z,1.77
2023-03-16T15:31:42.005Z,2.10
2023-03-16T15:34:13.764Z,2.13
2023-03-16T15:36:44.022Z,1.50
2023-03-16T15:39:23.028Z,2.00
2023-03-16T15:41:52.859Z,1.90
2023-03-16T15:44:23.188Z,1.70
2023-03-16T15:46:55.601Z,1.43
2023-03-16T15:49:30.196Z,2.80
2023-03-16T15:52:03.055Z,1.50
2023-03-16T15:54:35.760Z,1.73
2023-03-16T15:57:06.601Z,1.53
2023-03-16T15:59:38.549Z,2.17
2023-03-16T16:02:24.853Z,2.67
2023-03-16T16:04:57.560Z,2.00
2023-03-16T16:07:28.863Z,3.17
2023-03-16T16:09:59.043Z,1.50
2023-03-16T16:12:30.380Z,5.83
2023-03-16T16:15:00.558Z,1.43
2023-03-16T16:17:47.966Z,2.20
2023-03-16T16:20:27.109Z,2.07
2023-03-16T16:23:00.737Z,2.03
2023-03-16T16:25:35.730Z,2.47
2023-03-16T16:28:13.375Z,2.00
2023-03-16T16:30:43.787Z,1.90
2023-03-16T16:33:26.541Z,2.73
2023-03-16T16:36:01.142Z,1.50
2023-03-16T16:38:31.958Z,4.10
2023-03-16T16:41:03.992Z,1.67
2023-03-16T16:43:39.113Z,3.80
2023-03-16T16:46:15.798Z,1.80
2023-03-16T16:48:47.926Z,2.50
2023-03-16T16:51:21.985Z,2.90
2023-03-16T16:53:53.401Z,3.73
2023-03-16T16:56:28.066Z,3.23
2023-03-16T16:58:59.671Z,2.93
2023-03-16T17:01:33.401Z,3.80
2023-03-16T17:04:06.203Z,2.97
2023-03-16T17:06:39.925Z,4.10
2023-03-16T17:09:11.046Z,2.30
2023-03-16T17:11:42.188Z,3.40
2023-03-16T17:14:19.212Z,3.40
2023-03-16T17:16:50.933Z,2.90
2023-03-16T17:19:23.426Z,1.40
2023-03-16T17:21:57.516Z,3.77
2023-03-16T17:24:28.912Z,2.33
2023-03-16T17:27:00.469Z,2.53
2023-03-16T17:29:33.706Z,2.47
2023-03-16T17:32:04.757Z,2.80
2023-03-16T17:34:37.282Z,3.27
2023-03-16T17:37:15.424Z,2.83
2023-03-16T17:39:46.384Z,2.40
2023-03-16T17:42:18.739Z,2.80
2023-03-16T17:44:50.904Z,2.50
2023-03-16T17:47:23.122Z,4.10
2023-03-16T17:49:53.237Z,9.73
2023-03-16T17:52:26.051Z,9.73
2023-03-16T17:54:56.927Z,13.17
2023-03-16T17:57:29.862Z,17.03
2023-03-16T18:00:01.471Z,16.37
2023-03-16T18:02:50.048Z,18.57
2023-03-16T18:05:23.296Z,15.93
2023-03-16T18:07:57.115Z,17.33
2023-03-16T18:10:33.438Z,15.87
2023-03-16T18:13:05.594Z,15.30
2023-03-16T18:15:40.124Z,12.93
2023-03-16T18:18:13.535Z,12.50
2023-03-16T18:20:45.244Z,15.20
2023-03-16T18:23:32.611Z,14.20
2023-03-16T18:26:04.184Z,11.37
2023-03-16T18:28:35.583Z,10.33
2023-03-16T18:31:07.964Z,15.53
2023-03-16T18:33:39.675Z,8.80
2023-03-16T18:36:18.864Z,10.23
2023-03-16T18:38:52.386Z,8.07
2023-03-16T18:41:25.695Z,8.63
2023-03-16T18:43:59.199Z,7.93
2023-03-16T18:46:33.736Z,6.33
2023-03-16T18:49:05.591Z,8.17
2023-03-16T18:51:37.453Z,7.30
2023-03-16T18:54:21.862Z,8.03
2023-03-16T18:56:53.213Z,8.77
2023-03-16T18:59:23.328Z,9.37
2023-03-16T19:01:58.371Z,9.03
2023-03-16T19:04:31.301Z,9.37
2023-03-16T19:07:02.446Z,11.80
2023-03-16T19:09:36.394Z,13.43
2023-03-16T19:12:10.683Z,12.90
2023-03-16T19:14:41.141Z,14.13
2023-03-16T19:17:12.237Z,15.00
2023-03-16T19:19:43.461Z,13.03
2023-03-16T19:22:19.254Z,11.90
2023-03-16T19:24:53.125Z,15.53
2023-03-16T19:27:27.146Z,13.63
2023-03-16T19:29:58.100Z,16.27
2023-03-16T19:32:29.048Z,15.07
2023-03-16T19:35:00.703Z,13.53
2023-03-16T19:37:31.369Z,14.17
2023-03-16T19:40:03.915Z,18.03
2023-03-16T19:42:36.418Z,18.17
2023-03-16T19:45:08.589Z,18.13
2023-03-16T19:47:40.086Z,16.37
2023-03-16T19:50:17.272Z,16.23
2023-03-16T19:52:47.810Z,16.43
2023-03-16T19:55:22.850Z,16.63
2023-03-16T19:58:01.693Z,18.07
2023-03-16T20:00:32.313Z,21.00
2023-03-16T20:03:02.922Z,19.33
2023-03-16T20:05:34.320Z,17.83
2023-03-16T20:08:08.873Z,19.00
2023-03-16T20:10:42.499Z,26.97
2023-03-16T20:13:14.632Z,29.80
2023-03-16T20:15:46.036Z,29.27
2023-03-16T20:18:19.191Z,29.80
2023-03-16T20:20:51.285Z,31.90
2023-03-16T20:23:24.854Z,26.77
2023-03-16T20:26:02.812Z,30.83
2023-03-16T20:28:37.916Z,23.83
2023-03-16T20:31:12.044Z,24.10
2023-03-16T20:33:44.957Z,21.13
2023-03-16T20:36:16.073Z,18.50
2023-03-16T20:38:47.751Z,18.20
2023-03-16T20:41:28.494Z,17.63
2023-03-16T20:44:01.494Z,16.30
2023-03-16T20:46:34.823Z,16.60
2023-03-16T20:49:08.269Z,15.37
2023-03-16T20:51:42.390Z,11.57
2023-03-16T20:54:24.423Z,10.33
2023-03-16T20:56:58.510Z,9.40
2023-03-16T20:59:30.969Z,11.57
2023-03-16T21:02:02.043Z,9.17
2023-03-16T21:04:33.699Z,10.13
2023-03-16T21:07:05.274Z,21.80
2023-03-16T21:09:35.856Z,8.37
2023-03-16T21:12:10.939Z,8.03
2023-03-16T21:14:42.442Z,9.47
2023-03-16T21:17:23.585Z,9.70
2023-03-16T21:19:59.301Z,10.10
2023-03-16T21:22:31.897Z,8.30
2023-03-16T21:25:02.310Z,8.73
2023-03-16T21:27:38.044Z,6.87
2023-03-16T21:30:14.425Z,7.87
2023-03-16T21:32:44.941Z,7.17
2023-03-16T21:35:16.891Z,6.50
2023-03-16T21:37:47.650Z,7.80
2023-03-16T21:40:23.660Z,8.57
2023-03-16T21:42:56.692Z,9.87
2023-03-16T21:45:27.266Z,9.77
2023-03-16T21:47:58.839Z,6.93
2023-03-16T21:50:34.308Z,6.93
2023-03-16T21:53:04.740Z,10.80
2023-03-16T21:55:36.143Z,6.43
2023-03-16T21:58:08.403Z,8.23
2023-03-16T22:00:39.013Z,9.50
2023-03-16T22:03:22.147Z,10.87
2023-03-16T22:05:53.532Z,10.17
2023-03-16T22:08:26.195Z,7.80
2023-03-16T22:10:57.502Z,5.63
2023-03-16T22:13:28.980Z,5.50
2023-03-16T22:16:00.431Z,6.27
2023-03-16T22:18:35.165Z,7.27
2023-03-16T22:21:27.962Z,5.67
2023-03-16T22:23:59.580Z,6.17
2023-03-16T22:26:31.791Z,5.83
2023-03-16T22:29:18.950Z,9.83
2023-03-16T22:31:51.734Z,4.97
2023-03-16T22:34:32.470Z,6.93
2023-03-16T22:37:03.903Z,5.20
2023-03-16T22:39:39.753Z,7.80
2023-03-16T22:42:31.034Z,5.83
2023-03-16T22:45:05.834Z,4.67
2023-03-16T22:47:39.505Z,5.97
2023-03-16T22:50:12.078Z,6.43
2023-03-16T22:52:43.984Z,4.60
2023-03-16T22:55:18.958Z,7.23
2023-03-16T22:57:50.539Z,4.03
2023-03-16T23:00:23.536Z,5.33
2023-03-16T23:02:53.972Z,4.80
2023-03-16T23:05:25.840Z,5.03
2023-03-16T23:07:56.485Z,4.00
2023-03-16T23:10:28.564Z,8.63
2023-03-16T23:12:59.843Z,5.77
2023-03-16T23:15:32.677Z,6.10
2023-03-16T23:18:02.865Z,7.80
2023-03-16T23:20:34.045Z,6.30
2023-03-16T23:23:04.352Z,4.83
2023-03-16T23:25:34.809Z,6.00
2023-03-16T23:28:06.457Z,8.30
2023-03-16T23:30:38.916Z,6.40
2023-03-16T23:33:09.143Z,7.27
2023-03-16T23:35:39.017Z,4.70
2023-03-16T23:38:10.592Z,6.87
2023-03-16T23:40:41.937Z,6.00
2023-03-16T23:43:12.397Z,8.47
2023-03-16T23:45:46.982Z,3.53
2023-03-16T23:48:19.786Z,7.83
2023-03-16T23:50:52.542Z,6.17
2023-03-16T23:53:23.005Z,6.43
2023-03-16T23:55:53.167Z,3.60
2023-03-16T23:58:23.967Z,4.57
